• Join FlightAware (Why Join?)
  • Login
  • US Flag 
04:28PM EDT


 

Airport Tracker/Info


-or-


 

Live Flight TrackerFlight Track Log ✈ N53NW ✈ 12-Feb-2014 ✈ KCHS - KSRQ

Flight Track Log - Related Links

Times and Time Zones

All times are in EST time to prevent confusion due to time zone crossing. See the N53NW flight status page for this flight to view local times or setup timezone preferences in your user account.

Time Position Orientation Groundspeed Altitude Reporting Facility
EST Latitude Longitude Course Direction KTS MPH feet Rate Location/Type
05:57PM 32.9236 -80.1456 228° Southwest 214 246 7,200  Level Jacksonville Center
05:58PM 32.8811 -80.2014 228° Southwest 222 255 9,900 1,800 Climbing Jacksonville Center
05:59PM 32.8364 -80.2619 229° Southwest 233 268 10,900 1,980 Climbing Jacksonville Center
06:00PM 32.7981 -80.3200 232° Southwest 233 268 13,900 3,180 Climbing Jacksonville Center
06:01PM 32.7533 -80.3781 228° Southwest 239 275 17,300 2,940 Climbing Jacksonville Center
06:02PM 32.7125 -80.4336 229° Southwest 234 269 19,800 2,100 Climbing Jacksonville Center
06:03PM 32.6700 -80.4939 230° Southwest 239 275 21,500 1,560 Climbing Jacksonville Center
06:04PM 32.6211 -80.5592 228° Southwest 258 297 23,000 1,500 Climbing Jacksonville Center
06:05PM 32.5700 -80.6297 229° Southwest 274 315 24,600 2,100 Climbing Jacksonville Center
06:06PM 32.5233 -80.6925 229° Southwest 261 300 27,200 2,340 Climbing Jacksonville Center
06:07PM 32.4803 -80.7500 228° Southwest 243 280 29,300 1,800 Climbing Jacksonville Center
06:08PM 32.4394 -80.8078 230° Southwest 234 269 30,900 1,500 Climbing Jacksonville Center
06:09PM 32.3947 -80.8678 229° Southwest 240 276 32,400 1,380 Climbing Jacksonville Center
06:10PM 32.3475 -80.9328 229° Southwest 252 290 33,700 780 Climbing Jacksonville Center
06:11PM 32.3047 -80.9925 230° Southwest 262 302 34,000 120 Climbing Jacksonville Center
06:12PM 32.2433 -81.0700 227° Southwest 273 314 34,000  Level Jacksonville Center
06:13PM 32.1942 -81.1397 230° Southwest 285 328 34,000 840 Level Jacksonville Center
06:14PM 32.1447 -81.2019 227° Southwest 278 320 35,700 960 Climbing Jacksonville Center
06:15PM 32.0808 -81.2522 214° Southwest 270 311 36,000 120 Climbing Jacksonville Center
06:16PM 32.0167 -81.3072 216° Southwest 286 329 36,000  Level Jacksonville Center
06:17PM 31.9547 -81.3622 217° Southwest 286 329 36,000  Level Jacksonville Center
06:18PM 31.8906 -81.4147 215° Southwest 289 333 36,000  Level Jacksonville Center
06:19PM 31.8267 -81.4694 216° Southwest 288 331 36,000  Level Jacksonville Center
06:20PM 31.7708 -81.5167 216° Southwest 282 325 36,000  Level Jacksonville Center
06:21PM 31.7025 -81.5739 215° Southwest 282 325 36,000  Level Jacksonville Center
06:22PM 31.6467 -81.6211 216° Southwest 282 325 36,000  Level Jacksonville Center
06:23PM 31.5761 -81.6781 215° Southwest 282 325 36,000  Level Jacksonville Center
06:24PM 31.5119 -81.7325 216° Southwest 282 325 36,000  Level Jacksonville Center
06:25PM 31.4539 -81.7772 213° Southwest 287 330 36,000 540 Level Jacksonville Center
06:26PM 31.3856 -81.8364 216° Southwest 282 325 37,100 960 Climbing Jacksonville Center
06:27PM 31.3275 -81.8856 216° Southwest 277 319 38,000 420 Climbing Jacksonville Center
06:28PM 31.2631 -81.9375 215° Southwest 277 319 38,000 420 Level Jacksonville Center
06:29PM 31.2008 -81.9817 211° Southwest 277 319 38,900 480 Climbing Jacksonville Center
06:30PM 31.1214 -81.9969 189° South 278 320 39,000  Climbing Jacksonville Center
06:31PM 31.0422 -82.0147 191° South 293 337 39,000  Level Jacksonville Center
06:32PM 30.9608 -82.0300 189° South 293 337 39,000 180 Level Jacksonville Center
06:33PM 30.8839 -82.0453 190° South 293 337 39,400 480 Climbing Jacksonville Center
06:34PM 30.8044 -82.0606 189° South 293 337 40,000 300 Climbing Jacksonville Center
06:35PM 30.7275 -82.0733 188° South 293 337 40,000  Level Jacksonville Center
06:36PM 30.6522 -82.0883 190° South 293 337 40,000  Level Jacksonville Center
06:37PM 30.5753 -82.1036 190° South 288 331 40,000  Level Jacksonville Center
06:38PM 30.5064 -82.1139 187° South 288 331 40,000  Level Jacksonville Center
06:39PM 30.4292 -82.1264 188° South 288 331 40,000  Level Jacksonville Center
06:40PM 30.3500 -82.1439 191° South 288 331 40,000  Level Jacksonville Center
06:41PM 30.2706 -82.1589 189° South 293 337 40,000  Level Jacksonville Center
06:42PM 30.1914 -82.1739 189° South 293 337 40,000  Level Jacksonville Center
06:43PM 30.1122 -82.1892 189° South 293 337 40,000 -360 Level Jacksonville Center
06:44PM 30.0286 -82.1969 185° South 293 337 39,300 -1,560 Descending Jacksonville Center
06:45PM 29.9431 -82.1928 178° South 298 343 36,900 -2,400 Descending Jacksonville Center
06:46PM 29.8575 -82.1836 175° South 304 350 34,500 -2,400 Descending Jacksonville Center
06:47PM 29.7739 -82.1772 176° South 311 358 32,100 -2,400 Descending Jacksonville Center
06:48PM 29.6861 -82.1658 174° South 311 358 29,700 -2,160 Descending Jacksonville Center
06:49PM 29.6067 -82.1592 176° South 305 351 27,800 -1,800 Descending Jacksonville Center
06:50PM 29.5275 -82.1503 174° South 299 344 26,100 -1,740 Descending Jacksonville Center
06:51PM 29.4522 -82.1436 176° South 288 331 24,400 -1,080 Descending Jacksonville Center
06:52PM 29.3769 -82.1372 176° South 278 320 24,000 -600 Descending Jacksonville Center
06:53PM 29.3019 -82.1331 177° South 273 314 23,200 -900 Descending Jacksonville Center
06:54PM 29.2267 -82.1239 174° South 273 314 22,200 -1,020 Descending Jacksonville Center
06:55PM 29.1556 -82.1175 176° South 273 314 21,200 -960 Descending Jacksonville Center
06:56PM 29.0825 -82.1133 177° South 273 314 20,300 -1,200 Descending Jacksonville Center
06:57PM 29.0094 -82.1067 175° South 273 314 18,800 -1,500 Descending Jacksonville Center
06:58PM 28.9406 -82.0953 172° South 273 314 17,400 -1,320 Descending Jacksonville Center
07:00PM 28.8000 -82.0833 176° South 241 277 15,000 -1,200 Descending Tampa TRACON
07:01PM 28.7333 -82.0833 180° South 235 270 13,900 -1,200 Descending Tampa TRACON
07:02PM 28.6667 -82.0833 180° South 233 268 12,600 -1,260 Descending Tampa TRACON
07:03PM 28.6000 -82.0833 180° South 228 262 11,400 -900 Descending Tampa TRACON
07:04PM 28.5500 -82.0833 180° South 223 257 10,900 -840 Descending Tampa TRACON
07:05PM 28.4833 -82.0833 180° South 230 265 9,800 -1,200 Descending Tampa TRACON
07:06PM 28.4167 -82.0833 180° South 231 266 8,600 -1,260 Descending Tampa TRACON
07:07PM 28.3500 -82.0833 180° South 221 254 7,300 -1,320 Descending Tampa TRACON
07:08PM 28.2833 -82.0833 180° South 228 262 6,000 -660 Descending Tampa TRACON
07:09PM 28.2333 -82.0833 180° South 230 265 6,000  Level Tampa TRACON
07:10PM 28.1667 -82.0833 180° South 223 257 6,000  Level Tampa TRACON
07:11PM 28.1000 -82.0833 180° South 214 246 6,000  Level Tampa TRACON
07:12PM 28.0500 -82.1000 196° South 214 246 6,000  Level Tampa TRACON
07:13PM 27.9833 -82.1333 204° Southwest 217 250 6,000  Level Tampa TRACON
07:14PM 27.9333 -82.1500 196° South 217 250 6,000  Level Tampa TRACON
07:15PM 27.8833 -82.1667 196° South 219 252 6,000 -660 Level Tampa TRACON
07:16PM 27.8167 -82.1833 192° South 214 246 4,700 -1,020 Descending Tampa TRACON
07:17PM 27.7667 -82.2167 211° Southwest 202 232 4,000 -360 Descending Tampa TRACON
07:18PM 27.7167 -82.2333 196° South 203 234 4,000  Level Tampa TRACON
07:19PM 27.6500 -82.2500 192° South 208 239 4,000  Level Tampa TRACON
07:20PM 27.6000 -82.2500 180° South 214 246 4,000  Level Tampa TRACON
07:21PM 27.5333 -82.2667 192° South 203 234 4,000 -360 Level Tampa TRACON
07:22PM 27.4833 -82.2833 196° South 207 238 3,300 -540 Descending Tampa TRACON
07:23PM 27.4167 -82.3167 204° Southwest 222 255 3,000 -180 Descending Tampa TRACON
07:24PM 27.3667 -82.3333 196° South 222 255 3,000 -240 Level Tampa TRACON
07:25PM 27.3167 -82.3500 196° South 182 209 2,600 -540 Descending Tampa TRACON
07:26PM 27.2833 -82.3833 222° Southwest 168 193 2,000 -300 Descending Tampa TRACON
07:27PM 27.3000 -82.4333 291° West 164 189 2,000 -60 Level Tampa TRACON
07:28PM 27.3167 -82.4667 299° West 150 173 1,900 -420 Descending Tampa TRACON
07:29PM 27.3500 -82.5000 318° Northwest 111 128 1,300 -600 Descending Tampa TRACON
07:30PM 27.3667 -82.5167 318° Northwest 101 116 700 -600 Descending Tampa TRACON